sensor_id;sensor_type;location;lat;lon;timestamp;P1;durP1;ratioP1;P2;durP2;ratioP2
66957;SDS011;53892;43.258;-2.932;2022-12-28T00:02:05;9.02;;;4.50;;
66957;SDS011;53892;43.258;-2.932;2022-12-28T00:04:31;8.13;;;3.28;;
66957;SDS011;53892;43.258;-2.932;2022-12-28T00:06:57;12.38;;;4.82;;
66957;SDS011;53892;43.258;-2.932;2022-12-28T00:09:23;14.07;;;3.80;;
66957;SDS011;53892;43.258;-2.932;2022-12-28T00:11:49;6.07;;;3.40;;
66957;SDS011;53892;43.258;-2.932;2022-12-28T00:14:16;12.95;;;4.53;;
66957;SDS011;53892;43.258;-2.932;2022-12-28T00:16:42;10.13;;;4.10;;
66957;SDS011;53892;43.258;-2.932;2022-12-28T00:19:12;8.13;;;3.47;;
66957;SDS011;53892;43.258;-2.932;2022-12-28T00:21:39;7.97;;;3.95;;
66957;SDS011;53892;43.258;-2.932;2022-12-28T00:24:05;8.70;;;3.75;;
66957;SDS011;53892;43.258;-2.932;2022-12-28T00:26:32;7.97;;;3.03;;
66957;SDS011;53892;43.258;-2.932;2022-12-28T00:28:58;12.50;;;5.32;;
66957;SDS011;53892;43.258;-2.932;2022-12-28T00:31:24;11.77;;;3.67;;
66957;SDS011;53892;43.258;-2.932;2022-12-28T00:33:51;7.97;;;3.90;;
66957;SDS011;53892;43.258;-2.932;2022-12-28T00:36:17;10.18;;;3.50;;
66957;SDS011;53892;43.258;-2.932;2022-12-28T00:38:43;8.73;;;3.88;;
66957;SDS011;53892;43.258;-2.932;2022-12-28T00:41:09;10.95;;;4.35;;
66957;SDS011;53892;43.258;-2.932;2022-12-28T00:43:35;9.70;;;4.53;;
66957;SDS011;53892;43.258;-2.932;2022-12-28T00:46:02;9.70;;;4.32;;
66957;SDS011;53892;43.258;-2.932;2022-12-28T00:48:28;14.02;;;4.38;;
66957;SDS011;53892;43.258;-2.932;2022-12-28T00:51:02;17.13;;;5.15;;
66957;SDS011;53892;43.258;-2.932;2022-12-28T00:55:54;15.52;;;5.18;;
66957;SDS011;53892;43.258;-2.932;2022-12-28T00:58:20;13.77;;;4.22;;
66957;SDS011;53892;43.258;-2.932;2022-12-28T01:00:47;10.25;;;4.20;;
66957;SDS011;53892;43.258;-2.932;2022-12-28T01:03:14;11.18;;;3.78;;
66957;SDS011;53892;43.258;-2.932;2022-12-28T01:05:40;7.25;;;3.05;;
66957;SDS011;53892;43.258;-2.932;2022-12-28T01:08:06;8.95;;;2.53;;
66957;SDS011;53892;43.258;-2.932;2022-12-28T01:10:32;10.48;;;2.65;;
66957;SDS011;53892;43.258;-2.932;2022-12-28T01:12:58;8.82;;;2.72;;
66957;SDS011;53892;43.258;-2.932;2022-12-28T01:15:24;7.85;;;2.42;;
66957;SDS011;53892;43.258;-2.932;2022-12-28T01:17:50;10.27;;;2.70;;
66957;SDS011;53892;43.258;-2.932;2022-12-28T01:20:16;11.45;;;4.18;;
66957;SDS011;53892;43.258;-2.932;2022-12-28T01:22:42;7.97;;;2.47;;
66957;SDS011;53892;43.258;-2.932;2022-12-28T01:25:09;6.45;;;2.00;;
66957;SDS011;53892;43.258;-2.932;2022-12-28T01:27:35;9.43;;;1.98;;
66957;SDS011;53892;43.258;-2.932;2022-12-28T01:30:01;4.93;;;1.63;;
66957;SDS011;53892;43.258;-2.932;2022-12-28T01:32:27;7.65;;;2.30;;
66957;SDS011;53892;43.258;-2.932;2022-12-28T01:34:53;10.45;;;2.95;;
66957;SDS011;53892;43.258;-2.932;2022-12-28T01:37:19;8.00;;;2.78;;
66957;SDS011;53892;43.258;-2.932;2022-12-28T01:39:45;9.20;;;2.45;;
66957;SDS011;53892;43.258;-2.932;2022-12-28T01:42:14;6.78;;;2.40;;
66957;SDS011;53892;43.258;-2.932;2022-12-28T01:44:41;8.13;;;1.83;;
66957;SDS011;53892;43.258;-2.932;2022-12-28T01:47:09;7.15;;;1.70;;
66957;SDS011;53892;43.258;-2.932;2022-12-28T01:52:10;3.20;;;1.60;;
66957;SDS011;53892;43.258;-2.932;2022-12-28T01:54:41;2.83;;;0.90;;
66957;SDS011;53892;43.258;-2.932;2022-12-28T01:57:08;7.63;;;1.25;;
66957;SDS011;53892;43.258;-2.932;2022-12-28T01:59:36;7.90;;;1.10;;
66957;SDS011;53892;43.258;-2.932;2022-12-28T02:02:04;1.85;;;1.00;;
66957;SDS011;53892;43.258;-2.932;2022-12-28T02:04:30;2.65;;;0.93;;
66957;SDS011;53892;43.258;-2.932;2022-12-28T02:06:56;7.68;;;1.05;;
66957;SDS011;53892;43.258;-2.932;2022-12-28T02:09:27;5.55;;;1.35;;
66957;SDS011;53892;43.258;-2.932;2022-12-28T02:11:54;5.85;;;0.88;;
66957;SDS011;53892;43.258;-2.932;2022-12-28T02:14:20;5.45;;;1.33;;
66957;SDS011;53892;43.258;-2.932;2022-12-28T02:16:47;3.38;;;0.90;;
66957;SDS011;53892;43.258;-2.932;2022-12-28T02:19:15;5.95;;;0.90;;
66957;SDS011;53892;43.258;-2.932;2022-12-28T02:32:02;5.13;;;0.88;;
66957;SDS011;53892;43.258;-2.932;2022-12-28T02:34:43;5.03;;;0.90;;
66957;SDS011;53892;43.258;-2.932;2022-12-28T02:37:53;3.40;;;0.95;;
66957;SDS011;53892;43.258;-2.932;2022-12-28T02:40:43;5.55;;;0.60;;
66957;SDS011;53892;43.258;-2.932;2022-12-28T02:42:50;5.78;;;0.73;;
66957;SDS011;53892;43.258;-2.932;2022-12-28T02:48:17;7.30;;;1.55;;
66957;SDS011;53892;43.258;-2.932;2022-12-28T02:53:35;4.30;;;1.02;;
66957;SDS011;53892;43.258;-2.932;2022-12-28T02:56:09;6.40;;;1.42;;
66957;SDS011;53892;43.258;-2.932;2022-12-28T03:12:56;8.13;;;1.58;;
66957;SDS011;53892;43.258;-2.932;2022-12-28T03:15:21;5.40;;;1.45;;
66957;SDS011;53892;43.258;-2.932;2022-12-28T03:20:38;4.38;;;1.23;;
66957;SDS011;53892;43.258;-2.932;2022-12-28T03:23:22;10.57;;;1.70;;
66957;SDS011;53892;43.258;-2.932;2022-12-28T03:26:08;7.28;;;1.17;;
66957;SDS011;53892;43.258;-2.932;2022-12-28T03:28:54;3.28;;;1.25;;
66957;SDS011;53892;43.258;-2.932;2022-12-28T03:31:38;6.95;;;1.00;;
66957;SDS011;53892;43.258;-2.932;2022-12-28T03:34:05;6.07;;;1.08;;
66957;SDS011;53892;43.258;-2.932;2022-12-28T03:44:08;5.38;;;1.10;;
66957;SDS011;53892;43.258;-2.932;2022-12-28T03:46:39;4.10;;;1.20;;
66957;SDS011;53892;43.258;-2.932;2022-12-28T03:49:08;7.32;;;1.73;;
66957;SDS011;53892;43.258;-2.932;2022-12-28T03:51:35;4.05;;;1.15;;
66957;SDS011;53892;43.258;-2.932;2022-12-28T03:54:01;8.70;;;1.00;;
66957;SDS011;53892;43.258;-2.932;2022-12-28T03:56:27;6.57;;;0.70;;
66957;SDS011;53892;43.258;-2.932;2022-12-28T03:58:54;3.47;;;0.45;;
66957;SDS011;53892;43.258;-2.932;2022-12-28T04:01:20;2.38;;;0.50;;
66957;SDS011;53892;43.258;-2.932;2022-12-28T04:03:46;3.72;;;0.60;;
66957;SDS011;53892;43.258;-2.932;2022-12-28T04:06:13;8.45;;;0.65;;
66957;SDS011;53892;43.258;-2.932;2022-12-28T04:08:41;1.02;;;0.50;;
66957;SDS011;53892;43.258;-2.932;2022-12-28T04:11:07;3.38;;;0.60;;
66957;SDS011;53892;43.258;-2.932;2022-12-28T04:13:33;3.72;;;0.60;;
66957;SDS011;53892;43.258;-2.932;2022-12-28T04:16:04;3.13;;;0.65;;
66957;SDS011;53892;43.258;-2.932;2022-12-28T04:18:31;3.08;;;0.45;;
66957;SDS011;53892;43.258;-2.932;2022-12-28T04:20:58;4.53;;;0.38;;
66957;SDS011;53892;43.258;-2.932;2022-12-28T04:23:24;3.92;;;0.40;;
66957;SDS011;53892;43.258;-2.932;2022-12-28T04:26:01;2.20;;;0.68;;
66957;SDS011;53892;43.258;-2.932;2022-12-28T04:28:27;3.03;;;0.30;;
66957;SDS011;53892;43.258;-2.932;2022-12-28T04:30:54;1.70;;;0.45;;
66957;SDS011;53892;43.258;-2.932;2022-12-28T04:33:20;4.88;;;0.35;;
66957;SDS011;53892;43.258;-2.932;2022-12-28T04:35:46;4.03;;;0.60;;
66957;SDS011;53892;43.258;-2.932;2022-12-28T04:38:12;5.05;;;0.63;;
66957;SDS011;53892;43.258;-2.932;2022-12-28T04:40:39;1.42;;;0.40;;
66957;SDS011;53892;43.258;-2.932;2022-12-28T04:43:05;1.65;;;0.40;;
66957;SDS011;53892;43.258;-2.932;2022-12-28T04:45:31;5.10;;;0.50;;
66957;SDS011;53892;43.258;-2.932;2022-12-28T04:47:57;4.13;;;0.82;;
66957;SDS011;53892;43.258;-2.932;2022-12-28T04:50:23;1.75;;;0.30;;
66957;SDS011;53892;43.258;-2.932;2022-12-28T04:52:50;3.88;;;0.50;;
66957;SDS011;53892;43.258;-2.932;2022-12-28T04:55:16;2.75;;;0.63;;
66957;SDS011;53892;43.258;-2.932;2022-12-28T04:57:43;2.95;;;0.50;;
66957;SDS011;53892;43.258;-2.932;2022-12-28T05:00:09;10.15;;;0.80;;
66957;SDS011;53892;43.258;-2.932;2022-12-28T05:02:35;2.20;;;0.30;;
66957;SDS011;53892;43.258;-2.932;2022-12-28T05:05:01;1.73;;;0.40;;
66957;SDS011;53892;43.258;-2.932;2022-12-28T05:07:27;2.78;;;0.70;;
66957;SDS011;53892;43.258;-2.932;2022-12-28T05:09:54;2.22;;;0.40;;
66957;SDS011;53892;43.258;-2.932;2022-12-28T05:12:20;4.03;;;0.70;;
66957;SDS011;53892;43.258;-2.932;2022-12-28T05:14:46;1.00;;;0.32;;
66957;SDS011;53892;43.258;-2.932;2022-12-28T05:17:12;2.08;;;0.40;;
66957;SDS011;53892;43.258;-2.932;2022-12-28T05:19:38;3.25;;;0.40;;
66957;SDS011;53892;43.258;-2.932;2022-12-28T05:22:04;1.75;;;0.40;;
66957;SDS011;53892;43.258;-2.932;2022-12-28T05:24:36;4.85;;;0.65;;
66957;SDS011;53892;43.258;-2.932;2022-12-28T05:27:02;3.50;;;0.98;;
66957;SDS011;53892;43.258;-2.932;2022-12-28T05:29:28;1.88;;;0.68;;
66957;SDS011;53892;43.258;-2.932;2022-12-28T05:31:54;3.38;;;0.50;;
66957;SDS011;53892;43.258;-2.932;2022-12-28T05:34:20;5.57;;;0.85;;
66957;SDS011;53892;43.258;-2.932;2022-12-28T05:36:47;5.97;;;1.10;;
66957;SDS011;53892;43.258;-2.932;2022-12-28T05:39:13;3.25;;;0.40;;
66957;SDS011;53892;43.258;-2.932;2022-12-28T05:41:39;6.97;;;0.55;;
66957;SDS011;53892;43.258;-2.932;2022-12-28T05:44:05;1.58;;;0.40;;
66957;SDS011;53892;43.258;-2.932;2022-12-28T05:46:32;5.88;;;0.77;;
66957;SDS011;53892;43.258;-2.932;2022-12-28T05:48:58;5.85;;;0.38;;
66957;SDS011;53892;43.258;-2.932;2022-12-28T05:51:26;1.52;;;0.40;;
66957;SDS011;53892;43.258;-2.932;2022-12-28T05:53:52;5.50;;;0.77;;
66957;SDS011;53892;43.258;-2.932;2022-12-28T05:56:19;3.95;;;0.40;;
66957;SDS011;53892;43.258;-2.932;2022-12-28T05:58:46;1.15;;;0.20;;
66957;SDS011;53892;43.258;-2.932;2022-12-28T06:01:17;8.05;;;0.30;;
66957;SDS011;53892;43.258;-2.932;2022-12-28T06:03:44;4.22;;;0.30;;
66957;SDS011;53892;43.258;-2.932;2022-12-28T06:06:11;3.10;;;0.40;;
66957;SDS011;53892;43.258;-2.932;2022-12-28T06:08:38;4.10;;;0.30;;
66957;SDS011;53892;43.258;-2.932;2022-12-28T06:11:08;6.20;;;0.50;;
66957;SDS011;53892;43.258;-2.932;2022-12-28T06:13:35;3.65;;;0.45;;
66957;SDS011;53892;43.258;-2.932;2022-12-28T06:16:21;1.95;;;0.45;;
66957;SDS011;53892;43.258;-2.932;2022-12-28T06:18:47;1.90;;;0.30;;
66957;SDS011;53892;43.258;-2.932;2022-12-28T06:21:15;2.60;;;0.35;;
66957;SDS011;53892;43.258;-2.932;2022-12-28T06:23:42;1.83;;;0.40;;
66957;SDS011;53892;43.258;-2.932;2022-12-28T06:26:09;5.82;;;0.40;;
66957;SDS011;53892;43.258;-2.932;2022-12-28T06:28:36;2.38;;;0.55;;
66957;SDS011;53892;43.258;-2.932;2022-12-28T06:31:25;2.80;;;0.38;;
66957;SDS011;53892;43.258;-2.932;2022-12-28T06:33:52;2.88;;;1.13;;
66957;SDS011;53892;43.258;-2.932;2022-12-28T06:36:19;3.15;;;0.40;;
66957;SDS011;53892;43.258;-2.932;2022-12-28T06:38:46;2.65;;;0.35;;
66957;SDS011;53892;43.258;-2.932;2022-12-28T06:41:12;3.75;;;0.40;;
66957;SDS011;53892;43.258;-2.932;2022-12-28T06:43:39;4.40;;;0.40;;
66957;SDS011;53892;43.258;-2.932;2022-12-28T06:46:06;2.33;;;0.22;;
66957;SDS011;53892;43.258;-2.932;2022-12-28T06:48:32;1.73;;;0.30;;
66957;SDS011;53892;43.258;-2.932;2022-12-28T06:51:03;3.30;;;0.65;;
66957;SDS011;53892;43.258;-2.932;2022-12-28T06:53:30;2.83;;;0.30;;
66957;SDS011;53892;43.258;-2.932;2022-12-28T06:55:58;1.55;;;0.30;;
66957;SDS011;53892;43.258;-2.932;2022-12-28T06:58:26;1.42;;;0.38;;
66957;SDS011;53892;43.258;-2.932;2022-12-28T07:00:52;3.90;;;0.22;;
66957;SDS011;53892;43.258;-2.932;2022-12-28T07:03:19;5.10;;;0.30;;
66957;SDS011;53892;43.258;-2.932;2022-12-28T07:05:45;3.30;;;0.80;;
66957;SDS011;53892;43.258;-2.932;2022-12-28T07:08:11;3.28;;;0.40;;
66957;SDS011;53892;43.258;-2.932;2022-12-28T07:10:38;1.98;;;0.30;;
66957;SDS011;53892;43.258;-2.932;2022-12-28T07:13:04;3.63;;;0.30;;
66957;SDS011;53892;43.258;-2.932;2022-12-28T07:15:30;2.45;;;0.57;;
66957;SDS011;53892;43.258;-2.932;2022-12-28T07:17:57;5.25;;;0.30;;
66957;SDS011;53892;43.258;-2.932;2022-12-28T07:20:23;1.73;;;0.50;;
66957;SDS011;53892;43.258;-2.932;2022-12-28T07:22:49;1.38;;;0.38;;
66957;SDS011;53892;43.258;-2.932;2022-12-28T07:25:15;4.43;;;0.60;;
66957;SDS011;53892;43.258;-2.932;2022-12-28T07:27:42;2.85;;;0.40;;
66957;SDS011;53892;43.258;-2.932;2022-12-28T07:30:08;6.10;;;0.50;;
66957;SDS011;53892;43.258;-2.932;2022-12-28T07:32:37;1.00;;;0.50;;
66957;SDS011;53892;43.258;-2.932;2022-12-28T07:35:03;3.70;;;0.30;;
66957;SDS011;53892;43.258;-2.932;2022-12-28T07:37:29;1.02;;;0.30;;
66957;SDS011;53892;43.258;-2.932;2022-12-28T07:39:55;4.75;;;0.43;;
66957;SDS011;53892;43.258;-2.932;2022-12-28T07:42:22;2.35;;;0.65;;
66957;SDS011;53892;43.258;-2.932;2022-12-28T07:44:48;10.82;;;0.63;;
66957;SDS011;53892;43.258;-2.932;2022-12-28T07:47:14;2.38;;;0.30;;
66957;SDS011;53892;43.258;-2.932;2022-12-28T07:49:40;4.47;;;0.30;;
66957;SDS011;53892;43.258;-2.932;2022-12-28T07:52:06;4.53;;;0.38;;
66957;SDS011;53892;43.258;-2.932;2022-12-28T07:54:32;4.25;;;0.43;;
66957;SDS011;53892;43.258;-2.932;2022-12-28T07:56:58;9.80;;;1.55;;
66957;SDS011;53892;43.258;-2.932;2022-12-28T07:59:24;1.92;;;0.30;;
66957;SDS011;53892;43.258;-2.932;2022-12-28T08:01:50;9.52;;;0.40;;
66957;SDS011;53892;43.258;-2.932;2022-12-28T08:04:16;2.97;;;0.40;;
66957;SDS011;53892;43.258;-2.932;2022-12-28T08:06:43;2.40;;;0.30;;
66957;SDS011;53892;43.258;-2.932;2022-12-28T08:09:11;4.18;;;0.30;;
66957;SDS011;53892;43.258;-2.932;2022-12-28T08:11:38;2.50;;;0.35;;
66957;SDS011;53892;43.258;-2.932;2022-12-28T08:14:05;3.10;;;0.30;;
66957;SDS011;53892;43.258;-2.932;2022-12-28T08:16:33;2.15;;;0.40;;
66957;SDS011;53892;43.258;-2.932;2022-12-28T08:18:59;3.50;;;0.30;;
66957;SDS011;53892;43.258;-2.932;2022-12-28T08:21:32;1.17;;;0.30;;
66957;SDS011;53892;43.258;-2.932;2022-12-28T08:26:26;0.68;;;0.20;;
66957;SDS011;53892;43.258;-2.932;2022-12-28T08:28:53;2.63;;;0.28;;
66957;SDS011;53892;43.258;-2.932;2022-12-28T08:31:22;3.17;;;0.30;;
66957;SDS011;53892;43.258;-2.932;2022-12-28T08:33:49;5.65;;;0.43;;
66957;SDS011;53892;43.258;-2.932;2022-12-28T08:36:15;3.17;;;0.40;;
66957;SDS011;53892;43.258;-2.932;2022-12-28T08:38:42;3.22;;;0.38;;
66957;SDS011;53892;43.258;-2.932;2022-12-28T08:41:10;2.95;;;0.50;;
66957;SDS011;53892;43.258;-2.932;2022-12-28T08:43:36;4.53;;;0.30;;
66957;SDS011;53892;43.258;-2.932;2022-12-28T08:46:04;2.33;;;0.30;;
66957;SDS011;53892;43.258;-2.932;2022-12-28T08:48:30;2.95;;;0.30;;
66957;SDS011;53892;43.258;-2.932;2022-12-28T08:51:00;1.55;;;0.30;;
66957;SDS011;53892;43.258;-2.932;2022-12-28T08:53:27;2.30;;;0.20;;
66957;SDS011;53892;43.258;-2.932;2022-12-28T08:55:53;1.98;;;0.50;;
66957;SDS011;53892;43.258;-2.932;2022-12-28T08:58:19;5.28;;;0.20;;
66957;SDS011;53892;43.258;-2.932;2022-12-28T09:00:45;0.50;;;0.20;;
66957;SDS011;53892;43.258;-2.932;2022-12-28T09:03:11;3.58;;;0.28;;
66957;SDS011;53892;43.258;-2.932;2022-12-28T09:05:38;3.55;;;0.20;;
66957;SDS011;53892;43.258;-2.932;2022-12-28T09:08:04;2.85;;;0.30;;
66957;SDS011;53892;43.258;-2.932;2022-12-28T09:10:30;8.70;;;0.40;;
66957;SDS011;53892;43.258;-2.932;2022-12-28T09:12:56;3.92;;;0.50;;
66957;SDS011;53892;43.258;-2.932;2022-12-28T09:15:22;5.25;;;0.30;;
66957;SDS011;53892;43.258;-2.932;2022-12-28T09:17:49;2.72;;;0.30;;
66957;SDS011;53892;43.258;-2.932;2022-12-28T09:20:15;2.30;;;0.55;;
66957;SDS011;53892;43.258;-2.932;2022-12-28T09:22:41;4.05;;;0.20;;
66957;SDS011;53892;43.258;-2.932;2022-12-28T09:25:07;3.88;;;0.30;;
66957;SDS011;53892;43.258;-2.932;2022-12-28T09:27:33;3.13;;;0.30;;
66957;SDS011;53892;43.258;-2.932;2022-12-28T09:29:59;2.65;;;0.30;;
66957;SDS011;53892;43.258;-2.932;2022-12-28T09:32:25;3.58;;;0.40;;
66957;SDS011;53892;43.258;-2.932;2022-12-28T09:34:51;2.53;;;0.40;;
66957;SDS011;53892;43.258;-2.932;2022-12-28T09:37:18;2.28;;;0.40;;
66957;SDS011;53892;43.258;-2.932;2022-12-28T09:39:44;2.42;;;0.30;;
66957;SDS011;53892;43.258;-2.932;2022-12-28T09:55:16;3.55;;;0.30;;
66957;SDS011;53892;43.258;-2.932;2022-12-28T09:58:01;2.22;;;0.35;;
66957;SDS011;53892;43.258;-2.932;2022-12-28T10:00:38;5.72;;;0.63;;
66957;SDS011;53892;43.258;-2.932;2022-12-28T10:03:10;6.15;;;0.30;;
66957;SDS011;53892;43.258;-2.932;2022-12-28T10:05:38;2.45;;;0.40;;
66957;SDS011;53892;43.258;-2.932;2022-12-28T10:08:04;2.17;;;0.30;;
66957;SDS011;53892;43.258;-2.932;2022-12-28T10:10:30;1.55;;;0.30;;
66957;SDS011;53892;43.258;-2.932;2022-12-28T10:12:58;1.88;;;0.30;;
66957;SDS011;53892;43.258;-2.932;2022-12-28T10:15:27;1.65;;;0.20;;
66957;SDS011;53892;43.258;-2.932;2022-12-28T10:17:53;3.97;;;0.30;;
66957;SDS011;53892;43.258;-2.932;2022-12-28T10:20:20;2.60;;;0.40;;
66957;SDS011;53892;43.258;-2.932;2022-12-28T10:22:50;1.95;;;0.30;;
66957;SDS011;53892;43.258;-2.932;2022-12-28T10:25:18;5.72;;;0.50;;
66957;SDS011;53892;43.258;-2.932;2022-12-28T10:27:45;2.42;;;0.22;;
66957;SDS011;53892;43.258;-2.932;2022-12-28T10:30:18;2.38;;;0.40;;
66957;SDS011;53892;43.258;-2.932;2022-12-28T10:32:51;3.35;;;0.30;;
66957;SDS011;53892;43.258;-2.932;2022-12-28T10:37:56;5.50;;;0.30;;
66957;SDS011;53892;43.258;-2.932;2022-12-28T10:40:24;4.47;;;0.60;;
66957;SDS011;53892;43.258;-2.932;2022-12-28T10:42:51;6.70;;;0.30;;
66957;SDS011;53892;43.258;-2.932;2022-12-28T10:45:22;2.13;;;0.40;;
66957;SDS011;53892;43.258;-2.932;2022-12-28T10:47:50;3.05;;;1.10;;
66957;SDS011;53892;43.258;-2.932;2022-12-28T10:53:01;7.70;;;0.35;;
66957;SDS011;53892;43.258;-2.932;2022-12-28T10:55:28;2.63;;;0.47;;
66957;SDS011;53892;43.258;-2.932;2022-12-28T10:57:55;1.00;;;0.30;;
66957;SDS011;53892;43.258;-2.932;2022-12-28T11:00:21;4.55;;;0.90;;
66957;SDS011;53892;43.258;-2.932;2022-12-28T11:02:48;3.00;;;0.30;;
66957;SDS011;53892;43.258;-2.932;2022-12-28T11:05:19;2.92;;;0.63;;
66957;SDS011;53892;43.258;-2.932;2022-12-28T11:07:46;3.08;;;0.30;;
66957;SDS011;53892;43.258;-2.932;2022-12-28T11:10:30;3.17;;;0.73;;
66957;SDS011;53892;43.258;-2.932;2022-12-28T11:12:57;1.70;;;0.20;;
66957;SDS011;53892;43.258;-2.932;2022-12-28T11:15:25;4.72;;;0.50;;
66957;SDS011;53892;43.258;-2.932;2022-12-28T11:18:10;2.35;;;0.30;;
66957;SDS011;53892;43.258;-2.932;2022-12-28T11:20:38;4.30;;;0.52;;
66957;SDS011;53892;43.258;-2.932;2022-12-28T11:23:06;3.33;;;0.20;;
66957;SDS011;53892;43.258;-2.932;2022-12-28T11:25:34;4.20;;;0.28;;
66957;SDS011;53892;43.258;-2.932;2022-12-28T11:28:19;2.67;;;0.20;;
66957;SDS011;53892;43.258;-2.932;2022-12-28T11:30:46;2.05;;;0.25;;
66957;SDS011;53892;43.258;-2.932;2022-12-28T11:35:57;2.58;;;0.50;;
66957;SDS011;53892;43.258;-2.932;2022-12-28T11:38:37;6.43;;;0.30;;
66957;SDS011;53892;43.258;-2.932;2022-12-28T11:41:40;1.50;;;0.43;;
66957;SDS011;53892;43.258;-2.932;2022-12-28T11:44:02;6.43;;;0.40;;
66957;SDS011;53892;43.258;-2.932;2022-12-28T11:51:28;1.73;;;0.40;;
66957;SDS011;53892;43.258;-2.932;2022-12-28T11:56:25;2.17;;;0.35;;
66957;SDS011;53892;43.258;-2.932;2022-12-28T12:11:47;1.58;;;0.40;;
66957;SDS011;53892;43.258;-2.932;2022-12-28T12:14:14;5.50;;;0.30;;
66957;SDS011;53892;43.258;-2.932;2022-12-28T12:16:46;9.82;;;0.30;;
66957;SDS011;53892;43.258;-2.932;2022-12-28T12:19:34;2.28;;;0.20;;
66957;SDS011;53892;43.258;-2.932;2022-12-28T12:22:09;1.50;;;0.30;;
66957;SDS011;53892;43.258;-2.932;2022-12-28T12:24:42;5.88;;;0.30;;
66957;SDS011;53892;43.258;-2.932;2022-12-28T12:29:59;3.40;;;0.52;;
66957;SDS011;53892;43.258;-2.932;2022-12-28T12:35:00;1.50;;;0.30;;
66957;SDS011;53892;43.258;-2.932;2022-12-28T12:37:36;3.08;;;0.22;;
66957;SDS011;53892;43.258;-2.932;2022-12-28T12:42:38;1.85;;;0.30;;
66957;SDS011;53892;43.258;-2.932;2022-12-28T12:45:22;1.27;;;0.30;;
66957;SDS011;53892;43.258;-2.932;2022-12-28T12:52:52;2.17;;;0.40;;
66957;SDS011;53892;43.258;-2.932;2022-12-28T12:55:38;6.43;;;0.50;;
66957;SDS011;53892;43.258;-2.932;2022-12-28T12:58:08;2.75;;;0.50;;
66957;SDS011;53892;43.258;-2.932;2022-12-28T13:05:32;4.07;;;0.50;;
66957;SDS011;53892;43.258;-2.932;2022-12-28T13:08:00;4.22;;;0.40;;
66957;SDS011;53892;43.258;-2.932;2022-12-28T13:10:30;3.63;;;0.40;;
66957;SDS011;53892;43.258;-2.932;2022-12-28T13:12:57;8.80;;;0.32;;
66957;SDS011;53892;43.258;-2.932;2022-12-28T13:15:25;6.03;;;0.40;;
66957;SDS011;53892;43.258;-2.932;2022-12-28T13:20:36;4.90;;;0.30;;
66957;SDS011;53892;43.258;-2.932;2022-12-28T13:23:02;2.40;;;0.20;;
66957;SDS011;53892;43.258;-2.932;2022-12-28T13:25:29;3.08;;;0.40;;
66957;SDS011;53892;43.258;-2.932;2022-12-28T13:27:56;3.35;;;0.30;;
66957;SDS011;53892;43.258;-2.932;2022-12-28T13:30:23;1.35;;;0.30;;
66957;SDS011;53892;43.258;-2.932;2022-12-28T13:32:59;6.45;;;0.40;;
66957;SDS011;53892;43.258;-2.932;2022-12-28T13:35:29;8.13;;;0.60;;
66957;SDS011;53892;43.258;-2.932;2022-12-28T13:38:00;5.10;;;0.38;;
66957;SDS011;53892;43.258;-2.932;2022-12-28T13:40:26;3.00;;;0.30;;
66957;SDS011;53892;43.258;-2.932;2022-12-28T13:45:38;12.27;;;0.50;;
66957;SDS011;53892;43.258;-2.932;2022-12-28T13:48:04;3.67;;;0.30;;
66957;SDS011;53892;43.258;-2.932;2022-12-28T13:50:32;4.43;;;0.85;;
66957;SDS011;53892;43.258;-2.932;2022-12-28T13:53:00;2.60;;;0.77;;
66957;SDS011;53892;43.258;-2.932;2022-12-28T13:55:28;5.65;;;0.40;;
66957;SDS011;53892;43.258;-2.932;2022-12-28T13:57:56;2.88;;;0.35;;
66957;SDS011;53892;43.258;-2.932;2022-12-28T14:00:24;4.80;;;0.55;;
66957;SDS011;53892;43.258;-2.932;2022-12-28T14:02:51;2.15;;;0.50;;
66957;SDS011;53892;43.258;-2.932;2022-12-28T14:05:22;5.78;;;0.50;;
66957;SDS011;53892;43.258;-2.932;2022-12-28T14:07:49;5.07;;;0.52;;
66957;SDS011;53892;43.258;-2.932;2022-12-28T14:10:16;5.43;;;0.60;;
66957;SDS011;53892;43.258;-2.932;2022-12-28T14:12:42;1.70;;;0.20;;
66957;SDS011;53892;43.258;-2.932;2022-12-28T14:15:09;4.28;;;0.55;;
66957;SDS011;53892;43.258;-2.932;2022-12-28T14:17:36;2.85;;;0.30;;
66957;SDS011;53892;43.258;-2.932;2022-12-28T14:20:03;3.97;;;0.30;;
66957;SDS011;53892;43.258;-2.932;2022-12-28T14:22:31;4.45;;;0.35;;
66957;SDS011;53892;43.258;-2.932;2022-12-28T14:24:58;1.58;;;0.20;;
66957;SDS011;53892;43.258;-2.932;2022-12-28T14:27:25;3.03;;;0.30;;
66957;SDS011;53892;43.258;-2.932;2022-12-28T14:29:51;2.05;;;0.30;;
66957;SDS011;53892;43.258;-2.932;2022-12-28T14:32:19;2.58;;;0.55;;
66957;SDS011;53892;43.258;-2.932;2022-12-28T14:34:45;5.43;;;0.60;;
66957;SDS011;53892;43.258;-2.932;2022-12-28T14:37:21;6.53;;;0.50;;
66957;SDS011;53892;43.258;-2.932;2022-12-28T14:39:48;9.02;;;0.45;;
66957;SDS011;53892;43.258;-2.932;2022-12-28T14:42:24;6.18;;;0.40;;
66957;SDS011;53892;43.258;-2.932;2022-12-28T14:44:50;5.20;;;0.40;;
66957;SDS011;53892;43.258;-2.932;2022-12-28T14:52:41;4.30;;;0.43;;
66957;SDS011;53892;43.258;-2.932;2022-12-28T14:55:25;4.28;;;0.30;;
66957;SDS011;53892;43.258;-2.932;2022-12-28T14:58:02;3.17;;;0.35;;
66957;SDS011;53892;43.258;-2.932;2022-12-28T15:00:33;1.90;;;0.28;;
66957;SDS011;53892;43.258;-2.932;2022-12-28T15:03:13;2.88;;;0.38;;
66957;SDS011;53892;43.258;-2.932;2022-12-28T15:05:42;7.18;;;0.88;;
66957;SDS011;53892;43.258;-2.932;2022-12-28T15:08:08;2.63;;;0.30;;
66957;SDS011;53892;43.258;-2.932;2022-12-28T15:10:40;3.75;;;0.43;;
66957;SDS011;53892;43.258;-2.932;2022-12-28T15:13:06;4.03;;;0.40;;
66957;SDS011;53892;43.258;-2.932;2022-12-28T15:15:33;6.60;;;0.20;;
66957;SDS011;53892;43.258;-2.932;2022-12-28T15:17:59;3.28;;;0.57;;
66957;SDS011;53892;43.258;-2.932;2022-12-28T15:20:25;3.50;;;0.77;;
66957;SDS011;53892;43.258;-2.932;2022-12-28T15:22:51;8.50;;;0.35;;
66957;SDS011;53892;43.258;-2.932;2022-12-28T15:25:18;1.08;;;0.20;;
66957;SDS011;53892;43.258;-2.932;2022-12-28T15:27:50;6.70;;;0.50;;
66957;SDS011;53892;43.258;-2.932;2022-12-28T15:30:17;4.53;;;0.30;;
66957;SDS011;53892;43.258;-2.932;2022-12-28T15:32:43;1.77;;;0.70;;
66957;SDS011;53892;43.258;-2.932;2022-12-28T15:35:09;2.65;;;0.20;;
66957;SDS011;53892;43.258;-2.932;2022-12-28T15:37:35;5.72;;;0.73;;
66957;SDS011;53892;43.258;-2.932;2022-12-28T15:40:02;9.10;;;0.77;;
66957;SDS011;53892;43.258;-2.932;2022-12-28T15:42:28;6.03;;;0.30;;
66957;SDS011;53892;43.258;-2.932;2022-12-28T15:44:54;0.85;;;0.20;;
66957;SDS011;53892;43.258;-2.932;2022-12-28T15:47:20;4.47;;;0.40;;
66957;SDS011;53892;43.258;-2.932;2022-12-28T15:49:48;5.75;;;0.20;;
66957;SDS011;53892;43.258;-2.932;2022-12-28T15:52:14;4.28;;;0.63;;
66957;SDS011;53892;43.258;-2.932;2022-12-28T15:54:42;1.20;;;0.38;;
66957;SDS011;53892;43.258;-2.932;2022-12-28T15:57:08;5.00;;;0.95;;
66957;SDS011;53892;43.258;-2.932;2022-12-28T15:59:36;7.22;;;0.40;;
66957;SDS011;53892;43.258;-2.932;2022-12-28T16:02:03;6.25;;;0.75;;
66957;SDS011;53892;43.258;-2.932;2022-12-28T16:04:29;6.70;;;1.55;;
66957;SDS011;53892;43.258;-2.932;2022-12-28T16:06:55;6.07;;;0.30;;
66957;SDS011;53892;43.258;-2.932;2022-12-28T16:09:21;3.13;;;0.20;;
66957;SDS011;53892;43.258;-2.932;2022-12-28T16:11:47;4.25;;;1.02;;
66957;SDS011;53892;43.258;-2.932;2022-12-28T16:14:14;3.72;;;0.30;;
66957;SDS011;53892;43.258;-2.932;2022-12-28T16:16:41;4.03;;;0.63;;
66957;SDS011;53892;43.258;-2.932;2022-12-28T16:19:09;3.53;;;0.20;;
66957;SDS011;53892;43.258;-2.932;2022-12-28T16:21:36;2.40;;;0.20;;
66957;SDS011;53892;43.258;-2.932;2022-12-28T16:24:03;7.93;;;0.43;;
66957;SDS011;53892;43.258;-2.932;2022-12-28T16:26:29;6.35;;;0.30;;
66957;SDS011;53892;43.258;-2.932;2022-12-28T16:28:55;4.75;;;0.30;;
66957;SDS011;53892;43.258;-2.932;2022-12-28T16:31:22;2.35;;;0.25;;
66957;SDS011;53892;43.258;-2.932;2022-12-28T16:34:09;2.22;;;0.30;;
66957;SDS011;53892;43.258;-2.932;2022-12-28T16:36:35;4.32;;;0.28;;
66957;SDS011;53892;43.258;-2.932;2022-12-28T16:39:03;3.40;;;0.30;;